createdAt,value
2016-12-05T00:00:53.547Z,-74
2016-12-05T00:05:49.854Z,-72
2016-12-05T00:10:46.646Z,-73
2016-12-05T00:15:42.861Z,-72
2016-12-05T00:20:39.350Z,-71
2016-12-05T00:25:36.314Z,-72
2016-12-05T00:30:32.678Z,-73
2016-12-05T00:35:28.877Z,-73
2016-12-05T00:40:25.503Z,-72
2016-12-05T00:45:22.433Z,-72
2016-12-05T00:50:19.465Z,-72
2016-12-05T00:55:16.180Z,-73
2016-12-05T01:00:12.602Z,-72
2016-12-05T01:05:09.249Z,-72
2016-12-05T01:10:05.789Z,-72
2016-12-05T01:15:02.989Z,-71
2016-12-05T01:19:59.905Z,-72
2016-12-05T01:24:56.489Z,-72
2016-12-05T01:29:53.511Z,-73
2016-12-05T01:34:52.557Z,-72
2016-12-05T01:39:48.381Z,-74
2016-12-05T01:44:44.849Z,-72
2016-12-05T01:49:42.222Z,-75
2016-12-05T01:54:38.570Z,-75
2016-12-05T01:59:35.126Z,-75
2016-12-05T02:04:31.797Z,-76
2016-12-05T02:09:28.304Z,-75
2016-12-05T02:14:24.784Z,-76
2016-12-05T02:19:21.189Z,-74
2016-12-05T02:24:17.341Z,-72
2016-12-05T02:29:13.893Z,-73
2016-12-05T02:34:11.423Z,-71
2016-12-05T02:39:07.619Z,-71
2016-12-05T02:44:04.272Z,-72
2016-12-05T02:49:00.616Z,-72
2016-12-05T02:53:57.072Z,-71
2016-12-05T02:58:53.764Z,-72
2016-12-05T03:03:50.318Z,-71
2016-12-05T03:08:46.767Z,-72
2016-12-05T03:13:44.140Z,-72
2016-12-05T03:18:40.489Z,-72
2016-12-05T03:23:37.019Z,-72
2016-12-05T03:28:33.187Z,-73
2016-12-05T03:33:29.164Z,-71
2016-12-05T03:38:25.648Z,-72
2016-12-05T03:43:22.685Z,-73
2016-12-05T03:48:19.195Z,-72
2016-12-05T03:53:15.543Z,-72
2016-12-05T03:58:11.892Z,-72
2016-12-05T04:03:08.331Z,-73
2016-12-05T04:08:05.040Z,-73
2016-12-05T04:13:01.554Z,-72
2016-12-05T04:17:58.720Z,-72
2016-12-05T04:22:56.085Z,-73
2016-12-05T04:27:52.587Z,-73
2016-12-05T04:32:49.810Z,-74
2016-12-05T04:37:46.119Z,-73
2016-12-05T04:42:42.573Z,-74
2016-12-05T04:47:38.811Z,-73
2016-12-05T04:52:35.272Z,-73
2016-12-05T04:57:31.586Z,-75
2016-12-05T05:02:28.023Z,-76
2016-12-05T05:07:24.445Z,-76
2016-12-05T05:12:20.894Z,-76
2016-12-05T05:17:17.714Z,-75
2016-12-05T05:22:14.026Z,-76
2016-12-05T05:27:10.416Z,-75
2016-12-05T05:32:07.145Z,-75
2016-12-05T05:37:03.439Z,-73
2016-12-05T05:41:59.699Z,-72
2016-12-05T05:46:56.370Z,-76
2016-12-05T05:51:54.037Z,-74
2016-12-05T05:56:50.284Z,-73
2016-12-05T06:01:47.146Z,-73
2016-12-05T06:06:46.263Z,-72
2016-12-05T06:11:42.345Z,-73
2016-12-05T06:16:38.435Z,-73
2016-12-05T06:21:35.409Z,-73
2016-12-05T06:26:32.010Z,-73
2016-12-05T06:31:29.164Z,-74
2016-12-05T06:36:26.803Z,-74
2016-12-05T06:41:23.152Z,-72
2016-12-05T06:46:19.358Z,-73
2016-12-05T06:51:18.112Z,-73
2016-12-05T06:56:13.974Z,-73
2016-12-05T07:01:10.420Z,-72
2016-12-05T07:06:06.605Z,-70
2016-12-05T07:11:04.304Z,-70
2016-12-05T07:15:59.977Z,-68
2016-12-05T07:20:56.971Z,-68
2016-12-05T07:25:53.300Z,-68
2016-12-05T07:30:49.507Z,-71
2016-12-05T07:35:47.243Z,-69
2016-12-05T07:40:43.304Z,-70
2016-12-05T07:45:40.444Z,-68
2016-12-05T07:50:36.604Z,-70
2016-12-05T07:55:32.811Z,-72
2016-12-05T08:00:29.175Z,-70
2016-12-05T08:05:25.794Z,-74
2016-12-05T08:10:22.029Z,-74
2016-12-05T08:15:18.342Z,-69
2016-12-05T08:20:15.645Z,-69
2016-12-05T08:25:11.910Z,-72
2016-12-05T08:30:08.254Z,-70
2016-12-05T08:35:04.477Z,-69
2016-12-05T08:40:01.085Z,-69
2016-12-05T08:44:57.834Z,-69
2016-12-05T08:49:54.237Z,-70
2016-12-05T08:54:50.638Z,-70
2016-12-05T08:59:47.132Z,-69
2016-12-05T09:04:43.568Z,-68
2016-12-05T09:09:39.765Z,-70
2016-12-05T09:14:36.107Z,-67
2016-12-05T09:19:32.429Z,-70
2016-12-05T09:24:29.866Z,-71
2016-12-05T09:29:26.890Z,-70
2016-12-05T09:34:23.464Z,-70
2016-12-05T09:39:19.854Z,-69
2016-12-05T09:44:16.353Z,-73
2016-12-05T09:49:13.206Z,-69
2016-12-05T09:54:10.500Z,-69
2016-12-05T09:59:07.363Z,-69
2016-12-05T10:04:04.101Z,-74
2016-12-05T10:09:00.633Z,-69
2016-12-05T10:13:57.298Z,-70
2016-12-05T10:18:53.797Z,-73
2016-12-05T10:23:50.298Z,-72
2016-12-05T10:28:46.658Z,-68
2016-12-05T10:33:45.461Z,-69
2016-12-05T10:38:41.538Z,-71
2016-12-05T10:43:38.156Z,-71
2016-12-05T10:48:34.539Z,-71
2016-12-05T10:53:31.449Z,-71
2016-12-05T10:58:28.313Z,-74
2016-12-05T11:03:25.047Z,-72
2016-12-05T11:08:21.867Z,-71
2016-12-05T11:13:18.512Z,-71
2016-12-05T11:18:15.774Z,-71
2016-12-05T11:23:12.428Z,-72
2016-12-05T11:28:09.917Z,-68
2016-12-05T11:33:06.328Z,-71
2016-12-05T11:38:02.538Z,-69
2016-12-05T11:42:59.255Z,-70
2016-12-05T11:47:55.750Z,-72
2016-12-05T11:52:52.186Z,-69
2016-12-05T11:57:49.120Z,-68
2016-12-05T12:07:47.447Z,-73
2016-12-05T12:12:43.920Z,-72
2016-12-05T12:17:40.412Z,-73
2016-12-05T12:22:38.130Z,-71
2016-12-05T12:27:34.787Z,-74
2016-12-05T12:37:33.830Z,-77
2016-12-05T12:42:30.939Z,-73
2016-12-05T12:52:30.148Z,-75
2016-12-05T12:57:27.828Z,-73
2016-12-05T13:02:24.278Z,-73
2016-12-05T13:07:22.365Z,-77
2016-12-05T13:12:18.667Z,-69
2016-12-05T13:17:15.204Z,-71
2016-12-05T13:22:11.618Z,-71
2016-12-05T13:27:08.553Z,-73
2016-12-05T13:32:06.442Z,-70
2016-12-05T13:37:03.077Z,-73
2016-12-05T13:41:59.654Z,-76
2016-12-05T13:46:56.167Z,-72
2016-12-05T13:51:53.916Z,-73
2016-12-05T13:56:50.243Z,-72
2016-12-05T14:01:46.748Z,-76
2016-12-05T14:06:43.504Z,-69
2016-12-05T14:11:39.943Z,-72
2016-12-05T14:16:36.179Z,-75
2016-12-05T14:21:32.443Z,-74
2016-12-05T14:26:29.247Z,-72
2016-12-05T14:31:25.594Z,-73
2016-12-05T14:36:22.048Z,-73
2016-12-05T14:41:18.499Z,-76
2016-12-05T14:46:15.008Z,-75
2016-12-05T14:51:11.407Z,-78
2016-12-05T14:56:07.804Z,-75
2016-12-05T15:01:05.308Z,-80
2016-12-05T15:06:02.242Z,-78
2016-12-05T15:10:58.604Z,-71
2016-12-05T15:15:54.798Z,-79
2016-12-05T15:20:51.346Z,-76
2016-12-05T15:25:47.941Z,-69
2016-12-05T15:30:44.148Z,-78
2016-12-05T15:35:40.609Z,-71
2016-12-05T15:40:36.927Z,-77
2016-12-05T15:45:33.204Z,-78
2016-12-05T15:50:29.548Z,-71
2016-12-05T15:55:25.967Z,-72
2016-12-05T16:00:22.380Z,-73
2016-12-05T16:05:20.470Z,-75
2016-12-05T16:10:16.691Z,-74
2016-12-05T16:15:13.130Z,-75
2016-12-05T16:20:09.419Z,-72
2016-12-05T16:25:05.562Z,-72
2016-12-05T16:30:02.078Z,-72
2016-12-05T16:34:58.282Z,-73
2016-12-05T16:39:54.669Z,-73
2016-12-05T16:44:51.116Z,-70
2016-12-05T16:49:48.105Z,-72
2016-12-05T16:54:44.656Z,-71
2016-12-05T16:59:41.602Z,-77
2016-12-05T17:04:38.676Z,-68
2016-12-05T17:09:36.029Z,-74
2016-12-05T17:14:32.426Z,-68
2016-12-05T17:24:32.904Z,-69
2016-12-05T17:29:30.371Z,-66
2016-12-05T17:34:26.329Z,-68
2016-12-05T17:39:22.864Z,-69
2016-12-05T17:44:19.921Z,-67
2016-12-05T17:49:16.601Z,-66
2016-12-05T17:54:13.217Z,-70
2016-12-05T17:59:09.231Z,-76
2016-12-05T18:04:05.411Z,-69
2016-12-05T18:09:01.695Z,-70
2016-12-05T18:13:58.091Z,-68
2016-12-05T18:23:56.426Z,-71
2016-12-05T18:28:52.569Z,-67
2016-12-05T18:33:48.873Z,-71
2016-12-05T18:38:45.196Z,-74
2016-12-05T18:43:41.352Z,-69
2016-12-05T18:48:37.537Z,-70
2016-12-05T18:53:33.902Z,-67
2016-12-05T18:58:31.137Z,-70
2016-12-05T19:03:28.200Z,-69
2016-12-05T19:08:25.039Z,-70
2016-12-05T19:13:21.400Z,-69
2016-12-05T19:18:18.056Z,-70
2016-12-05T19:23:14.552Z,-67
2016-12-05T19:28:11.898Z,-67
2016-12-05T19:33:07.735Z,-69
2016-12-05T19:38:05.113Z,-69
2016-12-05T19:43:01.138Z,-68
2016-12-05T19:47:58.381Z,-69
2016-12-05T19:52:54.294Z,-69
2016-12-05T19:57:50.720Z,-68
2016-12-05T20:02:46.809Z,-66
2016-12-05T20:07:43.001Z,-66
2016-12-05T20:12:39.227Z,-66
2016-12-05T20:17:35.713Z,-70
2016-12-05T20:22:31.909Z,-66
2016-12-05T20:27:28.250Z,-68
2016-12-05T20:32:24.455Z,-67
2016-12-05T20:37:20.751Z,-67
2016-12-05T20:42:17.392Z,-67
2016-12-05T20:47:13.554Z,-66
2016-12-05T20:52:09.819Z,-68
2016-12-05T20:57:05.701Z,-67
2016-12-05T21:02:01.961Z,-67
2016-12-05T21:06:58.224Z,-66
2016-12-05T21:11:54.606Z,-67
2016-12-05T21:16:51.103Z,-68
2016-12-05T21:21:47.465Z,-65
2016-12-05T21:26:43.640Z,-67
2016-12-05T21:31:39.794Z,-68
2016-12-05T21:36:35.960Z,-70
2016-12-05T21:41:32.252Z,-71
2016-12-05T21:46:28.645Z,-70
2016-12-05T21:51:24.715Z,-70
2016-12-05T21:56:21.000Z,-71
2016-12-05T22:01:17.200Z,-71
2016-12-05T22:06:14.313Z,-68
2016-12-05T22:11:10.828Z,-69
2016-12-05T22:16:07.171Z,-66
2016-12-05T22:21:03.642Z,-66
2016-12-05T22:26:00.034Z,-66
2016-12-05T22:30:56.678Z,-67
2016-12-05T22:35:52.969Z,-67
2016-12-05T22:40:49.881Z,-65
2016-12-05T22:45:46.069Z,-66
2016-12-05T22:50:42.219Z,-66
2016-12-05T22:55:38.538Z,-65
2016-12-05T23:00:34.886Z,-65
2016-12-05T23:05:34.246Z,-67
2016-12-05T23:10:29.840Z,-66
2016-12-05T23:15:28.511Z,-66
2016-12-05T23:20:25.031Z,-66
2016-12-05T23:25:23.267Z,-67
2016-12-05T23:30:21.996Z,-67
2016-12-05T23:35:18.711Z,-67
2016-12-05T23:40:14.596Z,-65
2016-12-05T23:45:17.369Z,-67
2016-12-05T23:50:12.460Z,-66
2016-12-05T23:55:11.038Z,-68
